Rizokarpason, Cyprus
Current Conditions -  °F | °C
As of 5:50 PM on Thursday 30 Oct 2014 (Local Time) from LCEN Reporting Station
Scattered Clouds Scattered Clouds  
Wind Chill: 17°   Ceiling: Unl
Heat Index: 17°   Visibility: 6mi
Dew Point: 14°   Wind: 6mph
Humidity: 82%   Direction: 270°W
Pressure: 29.88"   Gusts: NA
Location:  35.58°N, 34.4°E
Report Text: LCEN 301450Z 27005KT 9999 FEW025 FEW030CB SCT080 17/14 Q1012 NOSIG
Loading
Personal Weather Stations






























Interactive Weather Map
Tropical Storm Tracking
New forecast layout! Learn more

10-Day Weather Forecast

Advertisements
Track Severe Weather on mobile